Bowring, Oklahoma
Current Conditions -  °F | °C
As of 3:53 PM on Monday 20 Oct 2014 (Local Time) from KBVO Reporting Station
Clear Clear  
Wind Chill: 24°   Ceiling: Unl
Heat Index: 24°   Visibility: 10mi
Dew Point: 16°   Wind: 3mph
Humidity: 58%   Direction: 70°ENE
Pressure: 30.03"   Gusts: NA
Location:  36.88°N, 96.12°W
Report Text: KBVO 202053Z AUTO 07003KT 10SM CLR 24/16 A3003 RMK AO2 SLP159 T02440156 56010
Loading
Personal Weather Stations






























Interactive Weather Map
Tropical Storm Tracking
New forecast layout! Learn more

10-Day Weather Forecast

Advertisements
Track Severe Weather on mobile